createdAt,value
2019-02-05T00:01:25.733Z,2.80
2019-02-05T00:03:27.792Z,2.80
2019-02-05T00:05:29.841Z,2.90
2019-02-05T00:07:31.645Z,2.80
2019-02-05T00:09:33.477Z,2.80
2019-02-05T00:11:36.166Z,2.80
2019-02-05T00:13:37.978Z,2.80
2019-02-05T00:15:39.700Z,2.90
2019-02-05T00:17:41.525Z,2.90
2019-02-05T00:19:43.789Z,2.90
2019-02-05T00:21:45.591Z,2.90
2019-02-05T00:23:47.436Z,2.90
2019-02-05T00:25:49.235Z,2.90
2019-02-05T00:27:50.949Z,2.90
2019-02-05T00:29:52.656Z,2.90
2019-02-05T00:31:54.448Z,2.90
2019-02-05T00:33:56.174Z,2.90
2019-02-05T00:35:57.893Z,3.00
2019-02-05T00:38:00.117Z,3.00
2019-02-05T00:40:02.255Z,3.00
2019-02-05T00:42:04.177Z,3.00
2019-02-05T00:44:05.998Z,3.00
2019-02-05T00:46:07.826Z,3.00
2019-02-05T00:48:09.534Z,3.00
2019-02-05T00:50:11.701Z,3.10
2019-02-05T00:52:13.506Z,3.00
2019-02-05T00:54:15.408Z,3.00
2019-02-05T00:56:17.928Z,3.00
2019-02-05T00:58:19.768Z,2.90
2019-02-05T01:00:24.009Z,3.00
2019-02-05T01:02:25.955Z,2.90
2019-02-05T01:04:27.950Z,2.90
2019-02-05T01:06:29.656Z,3.00
2019-02-05T01:08:31.372Z,3.00
2019-02-05T01:10:33.270Z,2.90
2019-02-05T01:12:35.061Z,3.00
2019-02-05T01:14:36.777Z,3.00
2019-02-05T01:16:38.472Z,2.90
2019-02-05T01:18:40.173Z,2.90
2019-02-05T01:20:42.105Z,3.00
2019-02-05T01:22:44.548Z,2.90
2019-02-05T01:24:46.362Z,2.90
2019-02-05T01:26:48.071Z,3.00
2019-02-05T01:28:50.015Z,3.00
2019-02-05T01:30:59.501Z,3.00
2019-02-05T01:33:01.208Z,2.90
2019-02-05T01:35:03.829Z,3.00
2019-02-05T01:37:05.662Z,3.00
2019-02-05T01:39:07.573Z,3.00
2019-02-05T01:43:33.602Z,3.10
2019-02-05T01:45:35.499Z,3.10
2019-02-05T01:47:37.211Z,3.00
2019-02-05T01:49:39.074Z,3.00
2019-02-05T01:51:40.777Z,3.00
2019-02-05T01:53:42.802Z,3.10
2019-02-05T01:55:44.725Z,3.10
2019-02-05T01:57:46.971Z,3.10
2019-02-05T02:09:10.888Z,3.10
2019-02-05T02:11:12.592Z,3.10
2019-02-05T02:13:14.684Z,3.10
2019-02-05T02:15:16.765Z,3.10
2019-02-05T02:17:18.456Z,3.10
2019-02-05T02:19:20.146Z,3.20
2019-02-05T02:21:22.181Z,3.20
2019-02-05T02:23:24.185Z,3.20
2019-02-05T02:25:26.219Z,3.20
2019-02-05T02:27:28.192Z,3.20
2019-02-05T02:29:29.989Z,3.20
2019-02-05T02:31:31.781Z,3.20
2019-02-05T02:33:33.618Z,3.20
2019-02-05T02:35:35.522Z,3.20
2019-02-05T02:37:37.214Z,3.20
2019-02-05T02:39:38.937Z,3.20
2019-02-05T02:41:40.742Z,3.20
2019-02-05T02:43:42.534Z,3.20
2019-02-05T02:45:44.340Z,3.30
2019-02-05T02:47:46.545Z,3.20
2019-02-05T02:49:48.244Z,3.20
2019-02-05T02:51:49.998Z,3.20
2019-02-05T02:53:51.711Z,3.20
2019-02-05T02:55:53.528Z,3.20
2019-02-05T02:57:55.340Z,3.20
2019-02-05T02:59:57.029Z,3.20
2019-02-05T03:01:58.733Z,3.10
2019-02-05T03:04:00.505Z,3.10
2019-02-05T03:06:02.303Z,3.10
2019-02-05T03:08:04.253Z,3.10
2019-02-05T03:10:09.171Z,3.00
2019-02-05T03:12:10.986Z,3.00
2019-02-05T03:14:12.918Z,3.00
2019-02-05T03:16:14.604Z,3.00
2019-02-05T03:18:16.310Z,3.00
2019-02-05T03:20:18.145Z,3.00
2019-02-05T03:22:19.977Z,3.00
2019-02-05T03:24:21.780Z,3.00
2019-02-05T03:26:24.322Z,3.10
2019-02-05T03:28:26.080Z,3.10
2019-02-05T03:30:28.182Z,3.10
2019-02-05T03:32:29.892Z,3.10
2019-02-05T03:34:31.645Z,3.10
2019-02-05T03:36:33.450Z,3.10
2019-02-05T03:38:35.150Z,3.20
2019-02-05T03:41:06.526Z,3.10
2019-02-05T03:43:08.321Z,3.20
2019-02-05T03:45:10.224Z,3.20
2019-02-05T03:47:12.172Z,3.10
2019-02-05T03:49:14.079Z,3.20
2019-02-05T03:52:01.150Z,3.20
2019-02-05T03:54:33.362Z,3.10
2019-02-05T03:56:59.699Z,3.10
2019-02-05T03:59:31.154Z,3.10
2019-02-05T04:02:15.733Z,3.20
2019-02-05T04:04:39.402Z,3.20
2019-02-05T04:07:06.164Z,3.20
2019-02-05T04:09:41.612Z,3.20
2019-02-05T04:12:23.761Z,3.20
2019-02-05T04:15:02.281Z,3.20
2019-02-05T04:17:45.777Z,3.20
2019-02-05T04:20:00.289Z,3.20
2019-02-05T04:23:05.565Z,3.20
2019-02-05T04:25:52.393Z,3.20
2019-02-05T04:28:41.582Z,3.20
2019-02-05T04:31:06.776Z,3.20
2019-02-05T04:33:21.545Z,3.20
2019-02-05T04:36:10.136Z,3.20
2019-02-05T04:38:37.114Z,3.20
2019-02-05T04:41:39.291Z,3.20
2019-02-05T04:44:19.721Z,3.20
2019-02-05T04:47:21.746Z,3.20
2019-02-05T04:50:08.126Z,3.20
2019-02-05T04:52:54.669Z,3.20
2019-02-05T04:55:41.502Z,3.20
2019-02-05T04:58:16.716Z,3.20
2019-02-05T05:00:31.629Z,3.30
2019-02-05T05:03:03.458Z,3.30
2019-02-05T05:05:29.113Z,3.30
2019-02-05T05:07:42.329Z,3.30
2019-02-05T05:09:56.784Z,3.30
2019-02-05T05:11:58.917Z,3.30
2019-02-05T05:14:00.788Z,3.30
2019-02-05T05:16:03.203Z,3.30
2019-02-05T05:18:05.121Z,3.40
2019-02-05T05:20:09.333Z,3.30
2019-02-05T05:22:11.261Z,3.40
2019-02-05T05:24:13.278Z,3.30
2019-02-05T05:26:15.195Z,3.30
2019-02-05T05:28:17.001Z,3.40
2019-02-05T05:30:18.934Z,3.30
2019-02-05T05:32:20.938Z,3.30
2019-02-05T05:34:22.655Z,3.40
2019-02-05T05:36:24.603Z,3.30
2019-02-05T05:38:26.305Z,3.30
2019-02-05T05:40:27.997Z,3.40
2019-02-05T05:42:29.818Z,3.30
2019-02-05T05:44:31.631Z,3.40
2019-02-05T05:46:33.549Z,3.40
2019-02-05T05:48:35.350Z,3.40
2019-02-05T05:50:37.330Z,3.30
2019-02-05T05:52:39.278Z,3.40
2019-02-05T05:54:41.616Z,3.40
2019-02-05T05:56:43.674Z,3.40
2019-02-05T05:58:45.484Z,3.40
2019-02-05T06:00:47.209Z,3.40
2019-02-05T06:02:49.417Z,3.40
2019-02-05T06:04:51.228Z,3.40
2019-02-05T06:06:52.965Z,3.40
2019-02-05T06:08:54.690Z,3.40
2019-02-05T06:10:56.588Z,3.40
2019-02-05T06:12:58.426Z,3.40
2019-02-05T06:15:00.263Z,3.40
2019-02-05T06:17:02.133Z,3.40
2019-02-05T06:19:04.121Z,3.40
2019-02-05T06:21:06.183Z,3.40
2019-02-05T06:23:07.899Z,3.40
2019-02-05T06:25:09.967Z,3.40
2019-02-05T06:27:11.897Z,3.40
2019-02-05T06:29:13.705Z,3.50
2019-02-05T06:31:15.653Z,3.40
2019-02-05T06:33:17.444Z,3.40
2019-02-05T06:35:19.160Z,3.40
2019-02-05T06:37:21.045Z,3.40
2019-02-05T06:39:22.891Z,3.40
2019-02-05T06:41:24.725Z,3.50
2019-02-05T06:43:26.796Z,3.50
2019-02-05T06:45:28.946Z,3.40
2019-02-05T06:47:30.660Z,3.50
2019-02-05T06:49:32.545Z,3.50
2019-02-05T06:51:34.381Z,3.50
2019-02-05T06:53:36.374Z,3.40
2019-02-05T06:55:38.090Z,3.40
2019-02-05T06:57:40.026Z,3.50
2019-02-05T06:59:41.909Z,3.50
2019-02-05T07:01:44.041Z,3.40
2019-02-05T07:03:46.007Z,3.40
2019-02-05T07:05:47.690Z,3.40
2019-02-05T07:07:49.616Z,3.50
2019-02-05T07:09:51.578Z,3.50
2019-02-05T07:11:53.461Z,3.50
2019-02-05T07:13:58.194Z,3.50
2019-02-05T07:15:59.548Z,3.50
2019-02-05T07:18:01.378Z,3.50
2019-02-05T07:20:04.046Z,3.50
2019-02-05T07:22:05.934Z,3.50
2019-02-05T07:24:07.841Z,3.50
2019-02-05T07:26:11.737Z,3.50
2019-02-05T07:28:13.941Z,3.50
2019-02-05T07:30:18.077Z,3.50
2019-02-05T07:32:19.915Z,3.50
2019-02-05T07:34:21.626Z,3.40
2019-02-05T07:36:23.609Z,3.40
2019-02-05T07:38:25.388Z,3.50
2019-02-05T07:40:27.323Z,3.50
2019-02-05T07:42:29.121Z,3.50
2019-02-05T07:44:31.121Z,3.50
2019-02-05T07:46:32.823Z,3.50
2019-02-05T07:48:34.606Z,3.50
2019-02-05T07:50:36.285Z,3.50
2019-02-05T07:52:38.317Z,3.50
2019-02-05T07:54:40.016Z,3.60
2019-02-05T07:56:41.782Z,3.60
2019-02-05T07:58:43.654Z,3.60
2019-02-05T08:00:45.834Z,3.60
2019-02-05T08:02:47.606Z,3.60
2019-02-05T08:04:49.413Z,3.60
2019-02-05T08:06:51.088Z,3.60
2019-02-05T08:08:53.318Z,3.60
2019-02-05T08:10:55.101Z,3.60
2019-02-05T08:12:56.890Z,3.60
2019-02-05T08:14:58.681Z,3.70
2019-02-05T08:17:00.350Z,3.80
2019-02-05T08:19:02.160Z,3.80
2019-02-05T08:21:03.990Z,3.80
2019-02-05T08:23:05.863Z,3.80
2019-02-05T08:25:08.997Z,3.80
2019-02-05T08:27:10.901Z,3.80
2019-02-05T08:29:21.315Z,3.80
2019-02-05T08:31:16.287Z,3.70
2019-02-05T08:33:18.376Z,3.70
2019-02-05T08:35:20.536Z,3.70
2019-02-05T08:37:22.305Z,3.70
2019-02-05T08:39:23.983Z,3.70
2019-02-05T08:41:26.091Z,3.70
2019-02-05T08:43:27.781Z,3.70
2019-02-05T08:45:30.558Z,3.80
2019-02-05T08:47:32.250Z,3.70
2019-02-05T08:49:34.534Z,3.80
2019-02-05T08:51:36.460Z,3.80
2019-02-05T08:53:38.126Z,3.80
2019-02-05T08:55:39.928Z,3.80
2019-02-05T08:57:42.257Z,3.90
2019-02-05T08:59:43.930Z,3.90
2019-02-05T09:01:46.362Z,3.90
2019-02-05T09:03:48.228Z,3.90
2019-02-05T09:05:50.354Z,4.00
2019-02-05T09:07:52.242Z,4.00
2019-02-05T09:09:54.085Z,4.00
2019-02-05T09:11:55.868Z,4.00
2019-02-05T09:13:57.758Z,3.90
2019-02-05T09:15:59.449Z,4.00
2019-02-05T09:18:01.477Z,3.90
2019-02-05T09:20:04.455Z,3.90
2019-02-05T09:22:06.526Z,4.10
2019-02-05T09:24:08.210Z,4.10
2019-02-05T09:26:09.981Z,4.10
2019-02-05T09:28:11.870Z,4.10
2019-02-05T09:30:16.069Z,4.10
2019-02-05T09:32:17.747Z,4.10
2019-02-05T09:34:19.696Z,4.10
2019-02-05T09:36:21.514Z,4.10
2019-02-05T09:38:23.205Z,4.10
2019-02-05T09:40:29.335Z,4.20
2019-02-05T09:42:31.213Z,4.20
2019-02-05T09:44:33.002Z,4.20
2019-02-05T09:46:34.729Z,4.10
2019-02-05T09:48:36.795Z,4.10
2019-02-05T09:50:44.767Z,4.10
2019-02-05T09:52:42.555Z,4.20
2019-02-05T09:54:44.230Z,4.20
2019-02-05T09:56:46.210Z,4.20
2019-02-05T09:58:47.901Z,4.30
2019-02-05T10:00:49.670Z,4.20
2019-02-05T10:02:51.498Z,4.30
2019-02-05T10:04:53.401Z,4.30
2019-02-05T10:06:55.205Z,4.30
2019-02-05T10:08:56.972Z,4.30
2019-02-05T10:10:58.754Z,4.30
2019-02-05T10:13:00.533Z,4.30
2019-02-05T10:15:03.918Z,4.30
2019-02-05T10:17:06.123Z,4.40
2019-02-05T10:19:07.951Z,4.40
2019-02-05T10:21:09.617Z,4.40
2019-02-05T10:23:11.433Z,4.40
2019-02-05T10:25:13.571Z,4.40
2019-02-05T10:27:15.246Z,4.50
2019-02-05T10:29:17.073Z,4.50
2019-02-05T10:31:18.754Z,4.40
2019-02-05T10:33:23.386Z,4.40
2019-02-05T10:35:25.612Z,4.40
2019-02-05T10:37:27.401Z,4.40
2019-02-05T10:39:29.581Z,4.40
2019-02-05T10:41:31.493Z,4.50
2019-02-05T10:43:33.404Z,4.50
2019-02-05T10:45:35.572Z,4.50
2019-02-05T10:47:38.025Z,4.60
2019-02-05T10:49:40.212Z,4.60
2019-02-05T10:51:42.381Z,4.70
2019-02-05T10:53:44.094Z,4.70
2019-02-05T10:55:46.056Z,4.70
2019-02-05T10:57:48.733Z,4.80
2019-02-05T10:59:50.445Z,4.90
2019-02-05T11:01:52.244Z,4.90
2019-02-05T11:03:54.040Z,4.90
2019-02-05T11:05:55.982Z,5.00
2019-02-05T11:07:57.988Z,5.10
2019-02-05T11:09:59.868Z,5.10
2019-02-05T11:12:01.888Z,5.20
2019-02-05T11:14:04.050Z,5.20
2019-02-05T11:16:06.089Z,5.30
2019-02-05T11:18:08.853Z,5.40
2019-02-05T11:20:13.495Z,5.40
2019-02-05T11:22:16.985Z,5.50
2019-02-05T11:24:18.672Z,5.60
2019-02-05T11:26:22.135Z,5.70
2019-02-05T11:28:23.973Z,5.70
2019-02-05T11:30:32.239Z,5.70
2019-02-05T11:32:34.050Z,5.70
2019-02-05T11:34:35.872Z,5.70
2019-02-05T11:36:37.749Z,5.80
2019-02-05T11:38:39.445Z,5.90
2019-02-05T11:40:41.432Z,5.80
2019-02-05T11:42:43.109Z,5.90
2019-02-05T11:44:44.806Z,5.90
2019-02-05T11:46:46.473Z,5.70
2019-02-05T11:48:48.153Z,5.60
2019-02-05T11:50:50.120Z,5.60
2019-02-05T11:52:51.782Z,5.70
2019-02-05T11:54:53.577Z,5.60
2019-02-05T11:56:55.256Z,5.60
2019-02-05T11:58:56.934Z,5.70
2019-02-05T12:01:09.001Z,5.80
2019-02-05T12:03:10.901Z,5.80
2019-02-05T12:05:13.301Z,5.70
2019-02-05T12:07:14.981Z,5.70
2019-02-05T12:09:20.133Z,5.70
2019-02-05T12:11:22.024Z,5.70
2019-02-05T12:13:23.793Z,5.70
2019-02-05T12:15:25.573Z,5.70
2019-02-05T12:17:27.397Z,5.70
2019-02-05T12:19:29.165Z,5.70
2019-02-05T12:21:34.043Z,5.70
2019-02-05T12:23:36.312Z,5.70
2019-02-05T12:25:38.189Z,5.70
2019-02-05T12:27:40.076Z,5.70
2019-02-05T12:29:41.763Z,5.80
2019-02-05T12:31:43.885Z,5.70
2019-02-05T12:33:45.772Z,5.80
2019-02-05T12:35:47.445Z,5.80
2019-02-05T12:37:49.355Z,5.80
2019-02-05T12:39:51.041Z,5.90
2019-02-05T12:41:56.020Z,5.90
2019-02-05T12:44:03.611Z,5.80
2019-02-05T12:46:05.253Z,5.80
2019-02-05T12:48:07.265Z,5.80
2019-02-05T12:50:12.880Z,5.80
2019-02-05T12:52:14.783Z,5.80
2019-02-05T12:54:16.623Z,5.90
2019-02-05T12:56:18.379Z,5.80
2019-02-05T12:58:20.358Z,5.90
2019-02-05T13:00:24.889Z,5.80
2019-02-05T13:02:26.572Z,5.90
2019-02-05T13:04:28.273Z,5.80
2019-02-05T13:06:30.180Z,5.70
2019-02-05T13:08:31.965Z,5.70
2019-02-05T13:10:35.854Z,5.80
2019-02-05T13:12:37.746Z,5.80
2019-02-05T13:14:39.533Z,5.80
2019-02-05T13:16:41.208Z,5.90
2019-02-05T13:18:43.216Z,5.80
2019-02-05T13:20:45.094Z,5.70
2019-02-05T13:22:47.063Z,5.80
2019-02-05T13:24:49.190Z,5.80
2019-02-05T13:26:50.963Z,5.80
2019-02-05T13:28:52.638Z,5.90
2019-02-05T13:30:54.676Z,5.90
2019-02-05T13:32:56.660Z,5.80
2019-02-05T13:34:58.364Z,5.80
2019-02-05T13:37:00.133Z,5.80
2019-02-05T13:39:04.097Z,5.90
2019-02-05T13:41:05.925Z,5.90
2019-02-05T13:43:08.109Z,5.80
2019-02-05T13:45:10.638Z,5.80
2019-02-05T13:47:12.372Z,5.80
2019-02-05T13:49:14.353Z,5.80
2019-02-05T13:51:16.062Z,5.90
2019-02-05T13:53:17.781Z,5.90
2019-02-05T13:55:21.652Z,5.80
2019-02-05T13:57:23.338Z,5.80
2019-02-05T13:59:25.054Z,5.80
2019-02-05T14:01:26.950Z,5.80
2019-02-05T14:03:28.753Z,5.80
2019-02-05T14:05:30.700Z,5.80
2019-02-05T14:07:32.395Z,5.90
2019-02-05T14:09:34.529Z,5.90
2019-02-05T14:11:36.221Z,5.90
2019-02-05T14:13:37.929Z,5.90
2019-02-05T14:15:40.609Z,5.80
2019-02-05T14:17:42.720Z,5.80
2019-02-05T14:19:44.444Z,5.80
2019-02-05T14:21:46.128Z,5.80
2019-02-05T14:23:47.850Z,5.90
2019-02-05T14:25:49.542Z,5.90
2019-02-05T14:27:51.416Z,5.90
2019-02-05T14:29:53.130Z,5.90
2019-02-05T14:31:54.970Z,5.90
2019-02-05T14:33:56.926Z,6.00
2019-02-05T14:35:58.844Z,6.00
2019-02-05T14:38:00.733Z,5.90
2019-02-05T14:40:04.146Z,5.90
2019-02-05T14:42:06.041Z,5.80
2019-02-05T14:44:08.038Z,5.80
2019-02-05T14:46:10.226Z,5.80
2019-02-05T14:48:13.652Z,5.80
2019-02-05T14:50:21.268Z,5.80
2019-02-05T14:52:23.286Z,5.90
2019-02-05T14:54:26.648Z,5.90
2019-02-05T14:56:28.329Z,5.80
2019-02-05T14:58:30.017Z,5.80
2019-02-05T15:00:32.174Z,5.70
2019-02-05T15:02:34.284Z,5.70
2019-02-05T15:04:35.964Z,5.70
2019-02-05T15:06:37.865Z,5.70
2019-02-05T15:08:39.549Z,5.70
2019-02-05T15:10:41.842Z,5.70
2019-02-05T15:12:43.790Z,5.60
2019-02-05T15:14:45.500Z,5.70
2019-02-05T15:16:47.241Z,5.70
2019-02-05T15:18:49.273Z,5.60
2019-02-05T15:20:51.369Z,5.60
2019-02-05T15:22:53.160Z,5.70
2019-02-05T15:24:54.838Z,5.60
2019-02-05T15:26:56.513Z,5.60
2019-02-05T15:28:58.310Z,5.60
2019-02-05T15:31:00.089Z,5.60
2019-02-05T15:33:13.760Z,5.60
2019-02-05T15:35:15.567Z,5.50
2019-02-05T15:37:17.293Z,5.60
2019-02-05T15:39:19.065Z,5.60
2019-02-05T15:41:21.040Z,5.60
2019-02-05T15:43:22.784Z,5.70
2019-02-05T15:45:24.882Z,5.60
2019-02-05T15:47:26.556Z,5.60
2019-02-05T15:49:28.689Z,5.60
2019-02-05T15:51:30.373Z,5.60
2019-02-05T15:53:32.164Z,5.50
2019-02-05T15:55:34.064Z,5.50
2019-02-05T15:57:36.133Z,5.50
2019-02-05T15:59:37.814Z,5.50
2019-02-05T16:01:39.890Z,5.60
2019-02-05T16:03:41.837Z,5.60
2019-02-05T16:05:43.731Z,5.50
2019-02-05T16:07:45.413Z,5.50
2019-02-05T16:09:47.126Z,5.60
2019-02-05T16:11:48.921Z,5.50
2019-02-05T16:13:50.584Z,5.50
2019-02-05T16:15:52.369Z,5.50
2019-02-05T16:17:54.284Z,5.50
2019-02-05T16:19:56.206Z,5.50
2019-02-05T16:21:57.893Z,5.50
2019-02-05T16:23:59.973Z,5.50
2019-02-05T16:26:01.648Z,5.50
2019-02-05T16:28:03.882Z,5.50
2019-02-05T16:30:12.824Z,5.50
2019-02-05T16:32:17.811Z,5.50
2019-02-05T16:34:18.268Z,5.50
2019-02-05T16:36:19.957Z,5.50
2019-02-05T16:38:21.724Z,5.50
2019-02-05T16:40:24.624Z,5.50
2019-02-05T16:42:26.740Z,5.40
2019-02-05T16:44:28.513Z,5.40
2019-02-05T16:46:30.313Z,5.40
2019-02-05T16:48:31.997Z,5.40
2019-02-05T16:50:38.738Z,5.40
2019-02-05T16:52:40.513Z,5.40
2019-02-05T16:54:42.200Z,5.40
2019-02-05T16:56:43.877Z,5.40
2019-02-05T16:58:45.573Z,5.40
2019-02-05T17:00:47.599Z,5.40
2019-02-05T17:02:49.588Z,5.30
2019-02-05T17:04:51.260Z,5.40
2019-02-05T17:06:52.985Z,5.40
2019-02-05T17:08:54.889Z,5.40
2019-02-05T17:10:56.910Z,5.30
2019-02-05T17:12:58.750Z,5.30
2019-02-05T17:15:00.460Z,5.30
2019-02-05T17:17:02.237Z,5.20
2019-02-05T17:19:04.196Z,5.20
2019-02-05T17:21:05.979Z,5.20
2019-02-05T17:23:07.765Z,5.20
2019-02-05T17:25:11.452Z,5.20
2019-02-05T17:27:13.737Z,5.30
2019-02-05T17:29:15.544Z,5.30
2019-02-05T17:31:17.358Z,5.20
2019-02-05T17:33:21.055Z,5.20
2019-02-05T17:35:23.578Z,5.20
2019-02-05T17:37:25.479Z,5.10
2019-02-05T17:39:27.179Z,5.10
2019-02-05T17:41:28.882Z,5.20
2019-02-05T17:43:30.565Z,5.10
2019-02-05T17:45:33.997Z,5.10
2019-02-05T17:47:35.790Z,5.10
2019-02-05T17:49:37.477Z,5.00
2019-02-05T17:51:39.468Z,5.00
2019-02-05T17:53:41.373Z,5.00
2019-02-05T17:55:43.130Z,4.90
2019-02-05T17:57:45.029Z,5.00
2019-02-05T17:59:46.978Z,5.00
2019-02-05T18:01:48.894Z,5.00
2019-02-05T18:03:50.669Z,5.00
2019-02-05T18:05:53.162Z,4.90
2019-02-05T18:07:55.077Z,5.00
2019-02-05T18:09:57.371Z,4.90
2019-02-05T18:11:59.206Z,5.00
2019-02-05T18:14:00.983Z,4.90
2019-02-05T18:16:09.421Z,4.90
2019-02-05T18:18:11.565Z,4.90
2019-02-05T18:20:13.470Z,4.80
2019-02-05T18:22:15.185Z,4.80
2019-02-05T18:24:17.045Z,4.80
2019-02-05T18:26:18.721Z,4.80
2019-02-05T18:28:20.710Z,4.80
2019-02-05T18:30:31.886Z,4.70
2019-02-05T18:32:33.754Z,4.70
2019-02-05T18:34:35.461Z,4.80
2019-02-05T18:36:37.266Z,4.70
2019-02-05T18:38:39.251Z,4.70
2019-02-05T18:40:41.693Z,4.70
2019-02-05T18:42:44.580Z,4.70
2019-02-05T18:44:48.151Z,4.60
2019-02-05T18:46:50.022Z,4.60
2019-02-05T18:48:52.165Z,4.50
2019-02-05T18:50:53.963Z,4.60
2019-02-05T18:52:56.132Z,4.50
2019-02-05T18:54:57.881Z,4.50
2019-02-05T18:56:59.573Z,4.50
2019-02-05T18:59:01.468Z,4.50
2019-02-05T19:01:04.538Z,4.50
2019-02-05T19:03:15.019Z,4.50
2019-02-05T19:07:40.642Z,4.50
2019-02-05T19:09:42.504Z,4.40
2019-02-05T19:11:44.293Z,4.50
2019-02-05T19:13:48.225Z,4.50
2019-02-05T19:15:50.336Z,4.40
2019-02-05T19:17:52.129Z,4.40
2019-02-05T19:19:54.655Z,4.40
2019-02-05T19:21:56.373Z,4.40
2019-02-05T19:24:09.670Z,4.40
2019-02-05T19:26:18.740Z,4.40
2019-02-05T19:28:26.388Z,4.30
2019-02-05T19:30:29.524Z,4.30
2019-02-05T19:32:31.877Z,4.30
2019-02-05T19:34:33.977Z,4.30
2019-02-05T19:36:47.870Z,4.30
2019-02-05T19:38:52.641Z,4.30
2019-02-05T19:40:57.679Z,4.30
2019-02-05T19:42:58.493Z,4.20
2019-02-05T19:45:12.655Z,4.20
2019-02-05T19:47:22.264Z,4.20
2019-02-05T19:49:45.182Z,4.20
2019-02-05T19:51:46.879Z,4.20
2019-02-05T19:53:49.299Z,4.10
2019-02-05T19:55:51.022Z,4.10
2019-02-05T19:57:52.785Z,4.10
2019-02-05T19:59:55.117Z,4.10
2019-02-05T20:01:57.125Z,4.10
2019-02-05T20:03:59.349Z,4.00
2019-02-05T20:06:01.714Z,4.00
2019-02-05T20:08:16.142Z,3.90
2019-02-05T20:10:25.291Z,3.90
2019-02-05T20:12:39.622Z,3.80
2019-02-05T20:14:33.229Z,3.80
2019-02-05T20:16:35.353Z,3.70
2019-02-05T20:18:37.042Z,3.80
2019-02-05T20:20:39.098Z,3.70
2019-02-05T20:22:41.397Z,3.70
2019-02-05T20:24:43.397Z,3.70
2019-02-05T20:26:47.706Z,3.60
2019-02-05T20:28:49.818Z,3.60
2019-02-05T20:30:51.541Z,3.60
2019-02-05T20:32:53.341Z,3.60
2019-02-05T20:34:55.149Z,3.60
2019-02-05T20:36:56.846Z,3.60
2019-02-05T20:42:27.734Z,3.50
2019-02-05T20:44:29.933Z,3.50
2019-02-05T20:46:31.648Z,3.40
2019-02-05T20:48:33.609Z,3.40
2019-02-05T20:50:35.337Z,3.40
2019-02-05T20:52:37.144Z,3.40
2019-02-05T20:54:38.930Z,3.40
2019-02-05T20:56:40.801Z,3.40
2019-02-05T20:58:42.630Z,3.40
2019-02-05T21:00:50.806Z,3.30
2019-02-05T21:02:53.262Z,3.30
2019-02-05T21:04:54.964Z,3.30
2019-02-05T21:09:47.672Z,3.20
2019-02-05T21:11:49.484Z,3.20
2019-02-05T21:13:51.709Z,3.10
2019-02-05T21:15:53.779Z,3.10
2019-02-05T21:18:21.257Z,3.00
2019-02-05T21:20:29.674Z,3.00
2019-02-05T21:22:27.470Z,3.00
2019-02-05T21:24:29.225Z,3.00
2019-02-05T21:26:31.197Z,3.00
2019-02-05T21:28:33.149Z,3.00
2019-02-05T21:30:35.458Z,2.90
2019-02-05T21:32:37.257Z,2.90
2019-02-05T21:34:39.012Z,2.90
2019-02-05T21:36:40.844Z,2.90
2019-02-05T21:38:45.442Z,2.90
2019-02-05T21:40:46.682Z,2.90
2019-02-05T21:42:48.657Z,2.90
2019-02-05T21:44:50.779Z,2.90
2019-02-05T21:46:52.910Z,2.90
2019-02-05T21:48:56.803Z,2.80
2019-02-05T21:50:58.600Z,2.90
2019-02-05T21:53:00.534Z,2.90
2019-02-05T21:55:02.962Z,2.80
2019-02-05T21:57:05.027Z,2.80
2019-02-05T21:59:07.023Z,2.80
2019-02-05T22:01:09.176Z,2.80
2019-02-05T22:03:11.449Z,2.80
2019-02-05T22:05:14.593Z,2.80
2019-02-05T22:07:16.604Z,2.80
2019-02-05T22:09:18.487Z,2.80
2019-02-05T22:11:20.326Z,2.70
2019-02-05T22:13:22.825Z,2.70
2019-02-05T22:25:34.240Z,2.60
2019-02-05T22:27:36.083Z,2.60
2019-02-05T22:29:37.884Z,2.60
2019-02-05T22:31:40.081Z,2.50
2019-02-05T22:33:42.293Z,2.50
2019-02-05T22:35:44.120Z,2.50
2019-02-05T22:37:46.329Z,2.40
2019-02-05T22:39:48.184Z,2.50
2019-02-05T22:41:50.047Z,2.40
2019-02-05T22:43:52.128Z,2.40
2019-02-05T22:45:53.941Z,2.40
2019-02-05T22:47:55.896Z,2.40
2019-02-05T22:49:57.608Z,2.40
2019-02-05T22:51:59.511Z,2.40
2019-02-05T22:54:01.231Z,2.40
2019-02-05T22:56:03.472Z,2.40
2019-02-05T22:58:06.062Z,2.40
2019-02-05T23:00:21.357Z,2.40
2019-02-05T23:02:23.374Z,2.40
2019-02-05T23:04:50.808Z,2.40
2019-02-05T23:06:57.593Z,2.40
2019-02-05T23:09:12.870Z,2.40
2019-02-05T23:11:54.374Z,2.40
2019-02-05T23:13:56.681Z,2.40
2019-02-05T23:15:58.389Z,2.40
2019-02-05T23:18:00.114Z,2.40
2019-02-05T23:20:04.793Z,2.40
2019-02-05T23:22:06.713Z,2.30
2019-02-05T23:24:08.436Z,2.40
2019-02-05T23:26:10.358Z,2.40
2019-02-05T23:28:12.285Z,2.30
2019-02-05T23:30:19.733Z,2.40
2019-02-05T23:32:21.717Z,2.40
2019-02-05T23:34:23.527Z,2.40
2019-02-05T23:36:25.435Z,2.40
2019-02-05T23:38:29.452Z,2.40
2019-02-05T23:40:31.366Z,2.40
2019-02-05T23:42:33.304Z,2.30
2019-02-05T23:44:35.406Z,2.40
2019-02-05T23:46:37.437Z,2.30
2019-02-05T23:48:39.268Z,2.30
2019-02-05T23:50:40.990Z,2.30
2019-02-05T23:52:42.900Z,2.30
2019-02-05T23:54:44.649Z,2.20
2019-02-05T23:56:46.358Z,2.30
2019-02-05T23:58:48.170Z,2.30
